Time;durP1;ratioP1;P1;durP2;ratioP2;P2;SDS_P1;SDS_P2;PMS_P1;PMS_P2;Temp;Humidity;BMP_temperature;BMP_pressure;BME280_temperature;BME280_humidity;BME280_pressure;Samples;Min_cycle;Max_cycle;Signal;HPM_P1;HPM_P2
2023/05/20 00:02:03;;;;;;;0.13;0.13;;;;;;;18.67;48.11;102627.63;5044228;28;20492;-72
2023/05/20 00:04:29;;;;;;;0.20;0.20;;;;;;;18.56;48.42;102633.88;5032701;28;20068;-71
2023/05/20 00:06:54;;;;;;;0.20;0.20;;;;;;;18.64;48.09;102637.09;5045461;28;20658;-71
2023/05/20 00:09:20;;;;;;;0.10;0.10;;;;;;;18.57;48.58;102635.53;5049734;28;20033;-70
2023/05/20 00:11:45;;;;;;;0.20;0.20;;;;;;;18.59;48.57;102630.69;5044094;28;20041;-71
2023/05/20 00:14:11;;;;;;;0.10;0.10;;;;;;;19.07;46.65;102628.56;5050394;28;20492;-71
2023/05/20 00:16:37;;;;;;;0.20;0.20;;;;;;;18.85;47.86;102638.41;5044371;28;20041;-71
2023/05/20 00:19:02;;;;;;;0.20;0.20;;;;;;;18.86;47.73;102630.00;5044620;28;20121;-70
2023/05/20 00:21:28;;;;;;;0.20;0.20;;;;;;;19.12;46.89;102639.59;5050558;28;20498;-70
2023/05/20 00:23:55;;;;;;;0.20;0.20;;;;;;;19.10;47.23;102636.28;5044289;28;20043;-69
2023/05/20 00:26:21;;;;;;;0.20;0.20;;;;;;;18.55;48.67;102638.50;5049568;28;20048;-71
2023/05/20 00:28:46;;;;;;;0.20;0.20;;;;;;;18.73;48.56;102632.13;5045012;28;20389;-71
2023/05/20 00:31:12;;;;;;;0.20;0.20;;;;;;;18.99;47.61;102631.66;5044257;28;20029;-68
2023/05/20 00:33:37;;;;;;;0.20;0.20;;;;;;;18.78;48.41;102635.81;5050279;28;20025;-71
2023/05/20 00:36:03;;;;;;;0.10;0.10;;;;;;;18.83;48.11;102635.09;5049808;28;20052;-70
2023/05/20 00:38:29;;;;;;;0.10;0.10;;;;;;;19.05;47.61;102630.69;5047911;28;20536;-71
2023/05/20 00:40:54;;;;;;;0.20;0.20;;;;;;;18.90;48.04;102628.47;5045389;28;20033;-70
2023/05/20 00:43:21;;;;;;;0.10;0.10;;;;;;;18.69;48.93;102629.03;5049993;28;20045;-69
2023/05/20 00:45:47;;;;;;;0.10;0.10;;;;;;;18.85;48.53;102635.69;5050486;28;20021;-71
2023/05/20 00:48:12;;;;;;;0.10;0.10;;;;;;;18.84;48.00;102623.13;5049744;28;20090;-71
2023/05/20 00:50:39;;;;;;;0.10;0.10;;;;;;;18.75;48.98;102619.91;5053332;28;20037;-71
2023/05/20 00:53:05;;;;;;;0.10;0.10;;;;;;;18.37;49.83;102622.22;5049874;28;20045;-70
2023/05/20 00:55:31;;;;;;;0.10;0.10;;;;;;;19.12;48.00;102615.06;5049806;28;20040;-70
2023/05/20 00:57:57;;;;;;;0.10;0.10;;;;;;;19.02;47.99;102620.28;5051670;28;20096;-72
2023/05/20 01:00:23;;;;;;;0.10;0.10;;;;;;;18.93;48.16;102614.34;5054015;28;20178;-71
2023/05/20 01:02:48;;;;;;;0.20;0.20;;;;;;;18.50;49.72;102616.56;5053932;28;20129;-70
2023/05/20 01:05:13;;;;;;;0.20;0.20;;;;;;;18.85;48.17;102620.16;5053896;28;20033;-70
2023/05/20 01:07:39;;;;;;;0.10;0.10;;;;;;;18.50;49.69;102613.84;5053582;28;20699;-71
2023/05/20 01:10:06;;;;;;;0.20;0.20;;;;;;;18.85;48.72;102611.97;5054272;28;20481;-71
2023/05/20 01:12:38;;;;;;;0.10;0.10;;;;;;;19.34;47.52;102613.38;5053221;28;20461;-70
2023/05/20 01:15:05;;;;;;;0.10;0.10;;;;;;;19.47;46.19;102606.84;5053438;28;20037;-70
2023/05/20 01:17:31;;;;;;;0.10;0.10;;;;;;;19.40;47.08;102617.06;5053885;28;20040;-70
2023/05/20 01:19:58;;;;;;;0.20;0.20;;;;;;;19.48;46.27;102606.59;5068430;28;20036;-70
2023/05/20 01:22:25;;;;;;;0.10;0.10;;;;;;;19.45;46.61;102609.00;5047293;28;20029;-71
2023/05/20 01:24:52;;;;;;;0.20;0.20;;;;;;;19.26;46.64;102611.03;5053911;28;20025;-72
2023/05/20 01:27:19;;;;;;;0.10;0.10;;;;;;;19.40;46.31;102606.97;5053192;28;20036;-70
2023/05/20 01:29:47;;;;;;;0.20;0.20;;;;;;;19.37;47.04;102599.28;5053551;28;20037;-71
2023/05/20 01:32:25;;;;;;;0.10;0.10;;;;;;;19.21;46.72;102609.00;5053361;28;20496;-70
2023/05/20 01:34:52;;;;;;;0.20;0.20;;;;;;;19.47;46.75;102607.69;5030403;28;20030;-70
2023/05/20 01:37:18;;;;;;;0.10;0.10;;;;;;;19.09;47.37;102594.56;5051905;28;20017;-70
2023/05/20 01:39:46;;;;;;;0.20;0.20;;;;;;;18.93;48.13;102592.56;5053616;28;20032;-71
2023/05/20 01:42:14;;;;;;;0.20;0.20;;;;;;;18.81;47.91;102593.66;5052924;28;20037;-71
2023/05/20 01:44:40;;;;;;;0.20;0.20;;;;;;;19.29;47.12;102592.28;5031384;28;20029;-71
2023/05/20 01:47:06;;;;;;;0.10;0.10;;;;;;;19.27;47.23;102588.13;5050491;28;20036;-70
2023/05/20 01:49:31;;;;;;;0.20;0.20;;;;;;;19.51;46.60;102586.22;5034838;28;20098;-70
2023/05/20 01:51:57;;;;;;;0.10;0.10;;;;;;;19.30;47.28;102591.19;5050996;28;20029;-71
2023/05/20 01:54:22;;;;;;;0.13;0.13;;;;;;;19.20;46.81;102582.81;5052097;28;20171;-72
2023/05/20 01:56:48;;;;;;;0.20;0.20;;;;;;;19.14;47.56;102586.47;5047610;28;20052;-71
2023/05/20 01:59:14;;;;;;;0.20;0.20;;;;;;;19.26;47.03;102584.56;5046808;28;20169;-71
2023/05/20 02:01:39;;;;;;;0.10;0.10;;;;;;;19.18;47.12;102581.41;5053087;28;20033;-70
2023/05/20 02:04:05;;;;;;;0.20;0.20;;;;;;;19.10;47.60;102584.50;5049123;28;20025;-71
2023/05/20 02:06:30;;;;;;;0.20;0.20;;;;;;;19.27;47.10;102585.41;5050533;28;20049;-70
2023/05/20 02:08:55;;;;;;;0.20;0.20;;;;;;;19.17;47.57;102585.19;5048346;28;20083;-70
2023/05/20 02:11:30;;;;;;;0.10;0.10;;;;;;;19.33;47.46;102575.47;5052626;28;20033;-71
2023/05/20 02:13:55;;;;;;;0.20;0.20;;;;;;;18.67;49.63;102570.44;5052396;28;20044;-71
2023/05/20 02:16:21;;;;;;;0.10;0.10;;;;;;;18.71;49.14;102575.16;5052540;28;20033;-69
2023/05/20 02:18:47;;;;;;;0.17;0.17;;;;;;;19.36;46.92;102578.53;5052926;28;20473;-70
2023/05/20 02:21:12;;;;;;;0.13;0.13;;;;;;;19.36;46.61;102575.00;5034251;28;20631;-71
2023/05/20 02:23:38;;;;;;;0.20;0.20;;;;;;;19.15;47.66;102574.53;5045982;28;20045;-70
2023/05/20 02:26:04;;;;;;;0.10;0.10;;;;;;;19.00;48.34;102573.38;5052209;28;20044;-70
2023/05/20 02:28:29;;;;;;;0.10;0.10;;;;;;;18.66;48.96;102577.75;5051887;28;20477;-71
2023/05/20 02:30:55;;;;;;;0.10;0.10;;;;;;;18.98;48.39;102578.22;5047526;28;20017;-70
2023/05/20 02:33:20;;;;;;;0.20;0.20;;;;;;;18.60;49.21;102580.59;5051549;28;20029;-70
2023/05/20 02:35:46;;;;;;;0.15;0.15;;;;;;;19.27;47.63;102588.13;5052087;28;20505;-71
2023/05/20 02:38:11;;;;;;;0.20;0.20;;;;;;;18.79;48.49;102582.16;5051969;28;20033;-70
2023/05/20 02:40:37;;;;;;;0.10;0.10;;;;;;;18.41;49.58;102577.97;5051806;28;20040;-70
2023/05/20 02:43:02;;;;;;;0.20;0.20;;;;;;;18.94;48.56;102577.88;5052375;28;20416;-71
2023/05/20 02:45:28;;;;;;;0.10;0.10;;;;;;;18.95;48.23;102579.53;5051970;28;20607;-69
2023/05/20 02:47:53;;;;;;;0.10;0.10;;;;;;;18.92;48.29;102568.28;5051949;28;20040;-71
2023/05/20 02:50:19;;;;;;;0.25;0.25;;;;;;;18.67;48.97;102571.25;5055353;28;20047;-71
2023/05/20 02:52:45;;;;;;;0.20;0.20;;;;;;;18.73;48.88;102564.84;5051734;28;20025;-70
2023/05/20 02:55:11;;;;;;;0.10;0.10;;;;;;;18.97;48.45;102569.22;5052339;28;20029;-70
2023/05/20 02:57:39;;;;;;;0.10;0.10;;;;;;;19.23;47.85;102562.41;5051828;28;20457;-70
2023/05/20 03:00:09;;;;;;;0.10;0.10;;;;;;;18.97;48.30;102565.66;5051777;28;20029;-71
2023/05/20 03:02:35;;;;;;;0.20;0.20;;;;;;;19.21;47.59;102561.84;5051427;28;20037;-71
2023/05/20 03:05:01;;;;;;;0.20;0.20;;;;;;;18.74;48.26;102561.06;5051411;28;20035;-70
2023/05/20 03:07:26;;;;;;;0.10;0.10;;;;;;;19.34;47.63;102558.06;5051179;28;20386;-71
2023/05/20 03:09:52;;;;;;;0.20;0.20;;;;;;;19.37;46.74;102550.22;5052012;28;20024;-70
2023/05/20 03:12:18;;;;;;;0.13;0.13;;;;;;;19.18;47.96;102557.69;5050793;28;20416;-69
2023/05/20 03:14:43;;;;;;;0.10;0.10;;;;;;;19.22;47.76;102555.31;5051111;28;20180;-69
2023/05/20 03:17:09;;;;;;;0.20;0.20;;;;;;;19.62;46.62;102558.88;5051076;28;20044;-71
2023/05/20 03:19:34;;;;;;;0.20;0.20;;;;;;;19.48;46.96;102562.97;5050456;28;20036;-71
2023/05/20 03:22:00;;;;;;;0.10;0.10;;;;;;;19.51;47.28;102564.38;5032473;28;20040;-71
2023/05/20 03:24:28;;;;;;;0.10;0.10;;;;;;;18.99;48.54;102566.25;5042248;28;20083;-71
2023/05/20 03:26:54;;;;;;;0.10;0.10;;;;;;;19.15;48.81;102569.09;5045580;28;20057;-71
2023/05/20 03:29:22;;;;;;;0.10;0.10;;;;;;;19.12;48.97;102571.47;5041960;28;20037;-72
2023/05/20 03:31:47;;;;;;;0.25;0.25;;;;;;;18.95;49.09;102571.34;5050610;28;20040;-72
2023/05/20 03:34:12;;;;;;;0.20;0.20;;;;;;;19.28;48.09;102566.06;5050468;28;20040;-70
2023/05/20 03:36:38;;;;;;;0.20;0.20;;;;;;;19.75;46.72;102563.25;5050796;28;20465;-71
2023/05/20 03:39:03;;;;;;;0.20;0.20;;;;;;;19.73;46.90;102570.84;5050695;28;20029;-71
2023/05/20 03:41:29;;;;;;;0.10;0.10;;;;;;;19.60;46.77;102569.22;5050539;28;20090;-70
2023/05/20 03:43:54;;;;;;;0.10;0.10;;;;;;;19.01;49.09;102566.84;5050618;28;20128;-71
2023/05/20 03:46:20;;;;;;;0.10;0.10;;;;;;;19.05;48.63;102574.31;5050752;28;20479;-71
2023/05/20 03:48:45;;;;;;;0.10;0.10;;;;;;;19.04;48.92;102571.81;5050814;28;20559;-71
2023/05/20 03:51:10;;;;;;;0.10;0.10;;;;;;;18.88;49.25;102569.81;5054336;28;20090;-71
2023/05/20 03:53:36;;;;;;;0.20;0.20;;;;;;;19.08;49.06;102573.00;5050403;28;20037;-72
2023/05/20 03:56:01;;;;;;;0.20;0.20;;;;;;;19.67;47.41;102571.81;5050515;28;20036;-71
2023/05/20 03:58:28;;;;;;;0.10;0.10;;;;;;;19.49;47.17;102575.56;5050095;28;20032;-70
2023/05/20 04:00:54;;;;;;;0.17;0.17;;;;;;;19.67;47.26;102578.09;5050846;28;20028;-71
2023/05/20 04:03:19;;;;;;;0.10;0.10;;;;;;;19.78;47.23;102588.13;5050273;28;20132;-70
2023/05/20 04:05:45;;;;;;;0.20;0.20;;;;;;;18.89;49.46;102579.63;5050247;28;20024;-71
2023/05/20 04:08:12;;;;;;;0.10;0.10;;;;;;;19.61;47.51;102578.22;5049878;28;20092;-70
2023/05/20 04:10:40;;;;;;;0.10;0.10;;;;;;;19.60;47.37;102577.41;5048892;28;20321;-71
2023/05/20 04:13:06;;;;;;;0.20;0.20;;;;;;;19.81;46.94;102582.16;5049388;28;20024;-70
2023/05/20 04:15:34;;;;;;;0.20;0.20;;;;;;;19.80;46.83;102574.22;5064019;28;20041;-70
2023/05/20 04:18:00;;;;;;;0.20;0.20;;;;;;;20.08;45.79;102579.69;5042921;28;20036;-70
2023/05/20 04:20:25;;;;;;;0.13;0.13;;;;;;;19.57;47.37;102574.34;5040256;28;20470;-70
2023/05/20 04:22:52;;;;;;;0.10;0.10;;;;;;;19.49;47.64;102583.72;5044029;28;20397;-70
2023/05/20 04:25:18;;;;;;;0.15;0.15;;;;;;;18.99;48.39;102575.25;5047611;28;20029;-69
2023/05/20 04:27:43;;;;;;;0.10;0.10;;;;;;;19.48;47.19;102586.72;5043224;28;20032;-70
2023/05/20 04:30:10;;;;;;;0.10;0.10;;;;;;;19.69;46.74;102577.84;5046601;28;20092;-71
2023/05/20 04:32:35;;;;;;;0.20;0.20;;;;;;;19.18;48.43;102581.41;5048021;28;21533;-71
2023/05/20 04:35:01;;;;;;;0.10;0.10;;;;;;;19.15;48.71;102576.41;5042952;28;20036;-71
2023/05/20 04:37:27;;;;;;;0.13;0.13;;;;;;;19.08;48.76;102587.47;5048628;28;20640;-70
2023/05/20 04:39:53;;;;;;;0.20;0.20;;;;;;;19.60;47.10;102577.41;5049087;28;20033;-71
2023/05/20 04:42:20;;;;;;;0.10;0.10;;;;;;;19.38;47.57;102586.50;5048227;28;20093;-70
2023/05/20 04:44:46;;;;;;;0.10;0.10;;;;;;;19.27;47.82;102582.69;5048273;28;20497;-70
2023/05/20 04:47:12;;;;;;;0.17;0.17;;;;;;;19.47;47.48;102585.03;5058955;28;20040;-70
2023/05/20 04:49:38;;;;;;;0.10;0.10;;;;;;;19.07;48.80;102591.25;5048557;28;20409;-71
2023/05/20 04:52:04;;;;;;;0.10;0.10;;;;;;;19.56;47.40;102586.28;5022893;28;20033;-70
2023/05/20 04:54:29;;;;;;;0.15;0.15;;;;;;;19.46;47.50;102576.00;5047033;28;20091;-70
2023/05/20 04:56:55;;;;;;;0.10;0.10;;;;;;;18.66;50.10;102580.50;5038900;28;20029;-71
2023/05/20 04:59:21;;;;;;;0.15;0.15;;;;;;;19.64;47.52;102581.28;5048072;28;20071;-71
2023/05/20 05:01:46;;;;;;;0.10;0.10;;;;;;;19.63;47.21;102579.66;5042595;28;20111;-71
2023/05/20 05:04:12;;;;;;;0.20;0.20;;;;;;;19.68;47.20;102585.19;5050066;28;20024;-70
2023/05/20 05:06:37;;;;;;;0.20;0.20;;;;;;;19.27;48.01;102590.84;5031150;28;20482;-71
2023/05/20 05:09:03;;;;;;;0.10;0.10;;;;;;;18.89;49.63;102583.19;5046420;28;20196;-71
2023/05/20 05:11:29;;;;;;;0.13;0.13;;;;;;;18.77;49.87;102589.75;5048411;28;20033;-71
2023/05/20 05:13:54;;;;;;;0.10;0.10;;;;;;;19.22;48.02;102597.03;5029974;28;20512;-71
2023/05/20 05:16:20;;;;;;;0.10;0.10;;;;;;;19.36;48.36;102596.81;5047873;28;20033;-69
2023/05/20 05:18:45;;;;;;;0.10;0.10;;;;;;;19.89;46.43;102591.88;5048959;28;20025;-71
2023/05/20 05:21:11;;;;;;;0.10;0.10;;;;;;;19.61;47.41;102589.13;5042749;28;20034;-71
2023/05/20 05:23:36;;;;;;;0.10;0.10;;;;;;;19.62;47.31;102590.78;5048268;28;20099;-70
2023/05/20 05:26:01;;;;;;;0.10;0.10;;;;;;;19.65;47.06;102593.03;5048593;28;20033;-70
2023/05/20 05:28:27;;;;;;;0.20;0.20;;;;;;;19.61;47.38;102587.25;5048245;28;20098;-70
2023/05/20 05:30:55;;;;;;;0.10;0.10;;;;;;;19.37;48.17;102588.38;5048648;28;20104;-71
2023/05/20 05:33:20;;;;;;;0.10;0.10;;;;;;;19.65;47.01;102587.59;5047926;28;20037;-70
2023/05/20 05:35:46;;;;;;;0.10;0.10;;;;;;;19.61;47.34;102591.88;5047894;28;20033;-70
2023/05/20 05:38:11;;;;;;;0.10;0.10;;;;;;;20.04;46.40;102584.81;5048092;28;20151;-70
2023/05/20 05:40:37;;;;;;;0.10;0.10;;;;;;;19.78;46.77;102581.84;5048264;28;20029;-72
2023/05/20 05:43:02;;;;;;;0.10;0.10;;;;;;;19.54;47.37;102580.25;5048083;28;20025;-71
2023/05/20 05:45:28;;;;;;;0.10;0.10;;;;;;;20.04;46.04;102579.34;5051571;28;20033;-70
2023/05/20 05:47:53;;;;;;;0.10;0.10;;;;;;;19.80;46.21;102583.25;5051473;28;20588;-72
2023/05/20 05:50:19;;;;;;;0.10;0.10;;;;;;;19.66;46.69;102567.41;5052387;28;20107;-71
2023/05/20 05:52:45;;;;;;;0.10;0.10;;;;;;;19.98;45.72;102571.31;5046102;28;20032;-70
2023/05/20 05:55:11;;;;;;;0.10;0.10;;;;;;;19.99;45.39;102570.22;5046152;28;20048;-71
2023/05/20 05:57:36;;;;;;;0.10;0.10;;;;;;;20.08;45.78;102568.75;5051774;28;20070;-69
2023/05/20 06:00:03;;;;;;;0.20;0.20;;;;;;;20.15;45.38;102572.16;5045013;28;20037;-70
2023/05/20 06:02:29;;;;;;;0.10;0.10;;;;;;;19.49;46.69;102575.56;5049587;28;20547;-71
2023/05/20 06:04:54;;;;;;;0.20;0.20;;;;;;;19.92;45.18;102578.56;5059278;28;20028;-73
2023/05/20 06:07:20;;;;;;;0.10;0.10;;;;;;;20.36;44.48;102592.47;5050913;28;20049;-71
2023/05/20 06:09:45;;;;;;;0.20;0.20;;;;;;;20.18;44.78;102588.03;5051561;28;20511;-71
2023/05/20 06:12:11;;;;;;;0.10;0.10;;;;;;;20.32;44.65;102583.97;5050714;28;20044;-71
2023/05/20 06:14:36;;;;;;;0.10;0.10;;;;;;;20.74;43.21;102589.81;5050845;28;20052;-70
2023/05/20 06:17:02;;;;;;;0.10;0.10;;;;;;;20.52;43.94;102595.19;5045208;28;20041;-70
2023/05/20 06:19:28;;;;;;;0.10;0.10;;;;;;;20.39;43.42;102590.06;5051916;28;20021;-70
2023/05/20 06:21:53;;;;;;;0.10;0.10;;;;;;;20.49;43.71;102592.97;5051454;28;20436;-71
2023/05/20 06:24:18;;;;;;;0.20;0.20;;;;;;;20.99;42.65;102582.00;5050522;28;20044;-71
2023/05/20 06:26:44;;;;;;;0.17;0.17;;;;;;;21.04;42.86;102578.53;5050839;28;20509;-70
2023/05/20 06:29:10;;;;;;;0.10;0.10;;;;;;;21.22;41.88;102583.69;5042360;28;20034;-70
2023/05/20 06:31:36;;;;;;;0.10;0.10;;;;;;;20.32;43.92;102583.13;5050981;28;20128;-71
2023/05/20 06:34:01;;;;;;;0.20;0.20;;;;;;;20.18;44.99;102574.41;5051762;28;20013;-71
2023/05/20 06:36:27;;;;;;;0.20;0.20;;;;;;;20.41;43.51;102577.00;5051405;28;20481;-70
2023/05/20 06:38:53;;;;;;;0.17;0.17;;;;;;;20.99;42.84;102571.88;5050371;28;20095;-70
2023/05/20 06:41:18;;;;;;;0.10;0.10;;;;;;;21.48;41.12;102572.81;5057032;28;20036;-70
2023/05/20 06:43:44;;;;;;;0.10;0.10;;;;;;;21.41;41.89;102571.34;5058234;28;20044;-70
2023/05/20 06:46:09;;;;;;;0.10;0.10;;;;;;;21.54;41.12;102573.72;5061020;28;20017;-71
2023/05/20 06:48:34;;;;;;;0.10;0.10;;;;;;;21.08;41.26;102572.31;5058346;28;20485;-71
2023/05/20 06:51:00;;;;;;;0.10;0.10;;;;;;;21.33;40.95;102561.69;5054688;28;20025;-70
2023/05/20 06:53:25;;;;;;;0.10;0.10;;;;;;;21.21;41.83;102571.13;5050103;28;20044;-70
2023/05/20 06:55:54;;;;;;;0.20;0.20;;;;;;;21.61;40.13;102564.22;5049160;28;20112;-71
2023/05/20 06:58:20;;;;;;;0.10;0.10;;;;;;;22.06;39.69;102563.88;5046810;28;20036;-69
2023/05/20 07:00:46;;;;;;;0.10;0.10;;;;;;;21.21;41.71;102562.91;5050510;28;20021;-70
2023/05/20 07:03:11;;;;;;;0.10;0.10;;;;;;;21.33;40.73;102553.47;5042733;28;20308;-70
2023/05/20 07:05:36;;;;;;;0.10;0.10;;;;;;;20.97;41.28;102556.81;5042984;28;20033;-70
2023/05/20 07:08:02;;;;;;;0.10;0.10;;;;;;;21.44;40.82;102548.97;5049545;28;20043;-70
2023/05/20 07:10:28;;;;;;;0.10;0.10;;;;;;;21.23;40.41;102547.88;5049563;28;20059;-70
2023/05/20 07:12:53;;;;;;;0.10;0.10;;;;;;;21.11;40.97;102552.66;5047333;28;20017;-69
2023/05/20 07:15:19;;;;;;;0.10;0.10;;;;;;;21.03;41.21;102550.34;5049227;28;20452;-70
2023/05/20 07:17:44;;;;;;;0.10;0.10;;;;;;;22.05;39.23;102537.59;5049442;28;20044;-70
2023/05/20 07:20:10;;;;;;;0.20;0.20;;;;;;;21.04;41.44;102546.53;5031452;28;20029;-71
2023/05/20 07:22:35;;;;;;;0.10;0.10;;;;;;;21.20;41.49;102542.09;5048854;28;20041;-70
2023/05/20 07:25:01;;;;;;;0.10;0.10;;;;;;;21.11;40.65;102549.09;5031873;28;20021;-71
2023/05/20 07:27:26;;;;;;;0.10;0.10;;;;;;;21.53;40.21;102551.00;5039967;28;20045;-70
2023/05/20 07:29:52;;;;;;;0.10;0.10;;;;;;;21.78;39.82;102545.78;5044855;28;20056;-70
2023/05/20 07:32:17;;;;;;;0.10;0.10;;;;;;;22.47;38.58;102538.47;5049355;28;20040;-71
2023/05/20 07:34:42;;;;;;;0.10;0.10;;;;;;;22.07;39.77;102542.81;5049726;28;20036;-69
2023/05/20 07:37:08;;;;;;;0.15;0.15;;;;;;;21.78;39.41;102536.72;5049240;28;20021;-69
2023/05/20 07:39:34;;;;;;;0.10;0.10;;;;;;;22.19;38.79;102540.72;5053702;28;20086;-69
2023/05/20 07:41:59;;;;;;;0.10;0.10;;;;;;;22.44;38.41;102530.78;5043401;28;20140;-70
2023/05/20 07:44:25;;;;;;;0.10;0.10;;;;;;;22.83;37.50;102525.84;5049220;28;20048;-70
2023/05/20 07:46:50;;;;;;;0.10;0.10;;;;;;;22.32;37.49;102532.91;5049119;28;20060;-69
2023/05/20 07:49:16;;;;;;;0.10;0.10;;;;;;;22.19;38.10;102532.50;5049038;28;20029;-69
2023/05/20 07:51:41;;;;;;;0.10;0.10;;;;;;;23.12;36.61;102534.50;5056461;28;20381;-69
2023/05/20 07:54:07;;;;;;;0.10;0.10;;;;;;;22.77;37.38;102520.59;5060646;28;20071;-70
2023/05/20 07:56:32;;;;;;;0.10;0.10;;;;;;;23.72;36.06;102528.41;5047916;28;20037;-71
2023/05/20 07:58:59;;;;;;;0.13;0.13;;;;;;;23.17;36.69;102523.56;5039522;28;20451;-70
2023/05/20 08:01:25;;;;;;;0.10;0.10;;;;;;;22.89;37.17;102519.31;5043258;28;20090;-69
2023/05/20 08:03:51;;;;;;;0.10;0.10;;;;;;;23.05;37.03;102525.69;5048869;28;20067;-70
2023/05/20 08:06:19;;;;;;;0.15;0.15;;;;;;;22.08;38.21;102528.84;5048303;28;20049;-71
2023/05/20 08:08:45;;;;;;;0.10;0.10;;;;;;;22.92;36.84;102518.78;5049008;28;20037;-69
2023/05/20 08:11:10;;;;;;;0.10;0.10;;;;;;;22.62;37.63;102507.66;5043051;28;20532;-69
2023/05/20 08:13:51;;;;;;;0.10;0.10;;;;;;;23.67;35.68;102514.66;5048968;28;20040;-70
2023/05/20 08:16:16;;;;;;;0.00;0.00;;;;;;;23.39;35.63;102513.22;5048912;28;20473;-69
2023/05/20 08:18:41;;;;;;;0.10;0.10;;;;;;;23.38;35.30;102509.66;5048484;28;20056;-68
2023/05/20 08:21:07;;;;;;;0.05;0.05;;;;;;;24.10;34.54;102511.44;5049398;28;20036;-69
2023/05/20 08:23:33;;;;;;;0.10;0.10;;;;;;;24.35;34.12;102501.25;5042913;28;20033;-73
2023/05/20 08:26:01;;;;;;;0.10;0.10;;;;;;;24.10;34.94;102493.03;5045932;28;20532;-70
2023/05/20 08:28:27;;;;;;;0.10;0.10;;;;;;;23.71;34.45;102504.78;5042181;28;20111;-69
2023/05/20 08:30:52;;;;;;;0.10;0.10;;;;;;;24.14;34.27;102505.13;5038531;28;20100;-65
2023/05/20 08:33:18;;;;;;;0.03;0.03;;;;;;;24.88;33.22;102493.47;5045366;28;20033;-65
2023/05/20 08:35:44;;;;;;;0.10;0.10;;;;;;;24.47;33.17;102494.66;5032425;28;20409;-71
2023/05/20 08:38:09;;;;;;;0.00;0.00;;;;;;;24.17;33.79;102492.78;5046312;28;20032;-68
2023/05/20 08:40:35;;;;;;;0.10;0.10;;;;;;;24.29;33.14;102496.06;5056469;28;20043;-69
2023/05/20 08:43:01;;;;;;;0.10;0.10;;;;;;;23.20;35.50;102490.91;5055991;28;20074;-69
2023/05/20 08:45:30;;;;;;;0.10;0.10;;;;;;;24.47;33.38;102495.47;5048233;28;20115;-69
2023/05/20 08:47:57;;;;;;;0.05;0.05;;;;;;;24.29;33.65;102496.06;5048376;28;20060;-69
2023/05/20 08:50:22;;;;;;;0.00;0.00;;;;;;;24.94;31.88;102495.91;5049049;28;20033;-64
2023/05/20 08:52:48;;;;;;;0.00;0.00;;;;;;;24.65;32.88;102486.63;5050100;28;20032;-62
2023/05/20 08:55:21;;;;;;;0.00;0.00;;;;;;;24.47;32.54;102481.72;5053827;28;20075;-67
2023/05/20 08:57:48;;;;;;;0.05;0.05;;;;;;;24.99;32.50;102479.41;5048627;28;20079;-67
2023/05/20 09:00:15;;;;;;;0.00;0.00;;;;;;;24.68;31.87;102477.00;5048521;28;20033;-68
2023/05/20 09:02:41;;;;;;;0.10;0.10;;;;;;;24.83;31.37;102483.31;5045222;28;20037;-67
2023/05/20 09:05:09;;;;;;;0.00;0.00;;;;;;;25.72;31.27;102477.63;5049054;28;20463;-68
2023/05/20 09:07:35;;;;;;;0.00;0.00;;;;;;;25.50;30.96;102462.63;5054007;28;20044;-66
2023/05/20 09:10:01;;;;;;;0.00;0.00;;;;;;;23.76;32.56;102482.84;5054117;28;20025;-62
2023/05/20 09:12:26;;;;;;;0.10;0.10;;;;;;;24.94;31.25;102468.41;5054169;28;20040;-62
2023/05/20 09:14:51;;;;;;;0.00;0.00;;;;;;;24.46;31.18;102476.50;5047748;28;20032;-62
2023/05/20 09:17:17;;;;;;;0.10;0.10;;;;;;;25.15;30.79;102469.13;5048347;28;20464;-63
2023/05/20 09:19:42;;;;;;;0.10;0.10;;;;;;;25.23;31.01;102468.53;5051383;28;20124;-63
2023/05/20 09:22:08;;;;;;;0.00;0.00;;;;;;;25.36;31.45;102465.16;5052925;28;20102;-63
2023/05/20 09:24:33;;;;;;;0.10;0.10;;;;;;;25.72;30.67;102461.09;5052373;28;20041;-64
2023/05/20 09:26:59;;;;;;;0.05;0.05;;;;;;;25.54;30.15;102459.03;5051151;28;20037;-64
2023/05/20 09:29:24;;;;;;;0.00;0.00;;;;;;;25.24;30.03;102457.25;5052232;28;20536;-62
2023/05/20 09:31:50;;;;;;;0.00;0.00;;;;;;;24.03;31.58;102465.03;5051414;28;20451;-66
2023/05/20 09:34:16;;;;;;;0.00;0.00;;;;;;;25.58;29.64;102454.59;5051679;28;20461;-62
2023/05/20 09:36:43;;;;;;;0.00;0.00;;;;;;;26.15;29.05;102445.59;5052561;28;20476;-62
2023/05/20 09:39:15;;;;;;;0.00;0.00;;;;;;;26.23;29.55;102444.97;5033232;28;20197;-69
2023/05/20 09:41:51;;;;;;;0.00;0.00;;;;;;;24.86;30.30;102452.50;5052146;28;20036;-70
2023/05/20 09:44:17;;;;;;;0.00;0.00;;;;;;;25.54;29.93;102431.50;5052515;28;20045;-69
2023/05/20 09:46:44;;;;;;;0.00;0.00;;;;;;;25.48;29.07;102429.03;5052111;28;20029;-69
2023/05/20 09:49:11;;;;;;;0.00;0.00;;;;;;;24.60;30.26;102447.34;5051107;28;20407;-72
2023/05/20 09:51:39;;;;;;;0.00;0.00;;;;;;;25.37;29.69;102439.28;5044663;28;20049;-70
2023/05/20 09:54:07;;;;;;;0.00;0.00;;;;;;;25.65;29.84;102435.00;5051801;28;20040;-70
2023/05/20 09:56:33;;;;;;;0.00;0.00;;;;;;;25.09;29.51;102435.34;5051109;28;20041;-68
2023/05/20 09:59:01;;;;;;;0.00;0.00;;;;;;;26.58;28.88;102427.19;5051835;28;20047;-68
2023/05/20 10:01:26;;;;;;;0.10;0.10;;;;;;;26.49;28.17;102427.03;5048556;28;20571;-72
2023/05/20 10:03:52;;;;;;;0.00;0.00;;;;;;;27.19;27.47;102427.25;5051805;28;20169;-70
2023/05/20 10:06:26;;;;;;;0.05;0.05;;;;;;;25.94;28.19;102419.31;5051254;28;20049;-69
2023/05/20 10:09:01;;;;;;;0.00;0.00;;;;;;;26.69;27.95;102412.97;5051542;28;20033;-70
2023/05/20 10:11:45;;;;;;;0.00;0.00;;;;;;;25.66;28.74;102414.59;5051464;28;20076;-68
2023/05/20 10:14:35;;;;;;;0.00;0.00;;;;;;;26.72;28.72;102408.84;5051170;28;20085;-69
2023/05/20 10:17:27;;;;;;;0.00;0.00;;;;;;;26.81;27.50;102418.13;5051158;28;20056;-70
2023/05/20 10:20:00;;;;;;;0.00;0.00;;;;;;;26.92;27.60;102414.94;5051316;28;20036;-70
2023/05/20 10:22:27;;;;;;;0.00;0.00;;;;;;;26.43;27.98;102406.16;5050792;28;20388;-70
2023/05/20 10:24:58;;;;;;;0.00;0.00;;;;;;;27.05;28.34;102404.25;5051524;28;20016;-70
2023/05/20 10:27:23;;;;;;;;;;;;;;;26.75;27.84;102394.47;5051697;28;20075;-69
2023/05/20 10:30:19;;;;;;;0.00;0.00;;;;;;;27.58;26.06;102400.97;5051141;28;20018;-69
2023/05/20 10:32:56;;;;;;;0.00;0.00;;;;;;;27.27;27.94;102380.47;5066159;28;20041;-69
2023/05/20 10:35:26;;;;;;;0.00;0.00;;;;;;;27.42;27.84;102394.06;5070973;28;20420;-69
2023/05/20 10:37:54;;;;;;;0.00;0.00;;;;;;;26.16;28.30;102381.09;5033708;28;20405;-69
2023/05/20 10:40:21;;;;;;;0.00;0.00;;;;;;;26.65;28.72;102386.31;5051282;28;20033;-69
2023/05/20 10:42:47;;;;;;;0.00;0.00;;;;;;;27.41;28.16;102380.56;5049500;28;20037;-70
2023/05/20 10:45:27;;;;;;;0.17;0.00;;;;;;;27.95;27.34;102374.41;5051175;28;20116;-70
2023/05/20 10:47:55;;;;;;;0.00;0.00;;;;;;;27.94;26.71;102365.25;5051459;28;20033;-68
2023/05/20 10:50:27;;;;;;;0.00;0.00;;;;;;;27.27;26.57;102374.94;5050624;28;20049;-70
2023/05/20 10:52:53;;;;;;;0.00;0.00;;;;;;;27.45;25.89;102382.44;5051191;28;20041;-69
2023/05/20 10:55:21;;;;;;;0.00;0.00;;;;;;;26.43;27.30;102378.59;5050872;28;20032;-71
2023/05/20 10:57:47;;;;;;;0.00;0.00;;;;;;;26.62;28.07;102362.88;5066200;28;20029;-70
2023/05/20 11:00:15;;;;;;;0.00;0.00;;;;;;;26.78;26.73;102366.28;5042599;28;20060;-69
2023/05/20 11:02:40;;;;;;;0.00;0.00;;;;;;;26.40;27.63;102368.13;5050544;28;20037;-72
2023/05/20 11:05:10;;;;;;;0.00;0.00;;;;;;;26.18;28.37;102358.75;5050425;28;20480;-69
2023/05/20 11:07:35;;;;;;;0.00;0.00;;;;;;;26.02;27.85;102358.06;5050140;28;20062;-69
2023/05/20 11:10:01;;;;;;;0.00;0.00;;;;;;;26.99;27.12;102355.81;5051085;28;20139;-71
2023/05/20 11:12:26;;;;;;;0.00;0.00;;;;;;;27.47;26.46;102347.03;5050546;28;20052;-70
2023/05/20 11:14:52;;;;;;;0.00;0.00;;;;;;;28.19;26.46;102341.84;5050085;28;20041;-68
2023/05/20 11:17:18;;;;;;;0.00;0.00;;;;;;;28.60;25.11;102337.97;5049872;28;20455;-69
2023/05/20 11:19:46;;;;;;;0.00;0.00;;;;;;;26.94;25.96;102343.72;5048108;28;20061;-70
2023/05/20 11:22:11;;;;;;;0.00;0.00;;;;;;;26.89;26.33;102349.28;5041584;28;20037;-69